Main page
Satellite images 10-day forecastsClimateMarine weather Cyclones Lightning AirportsFAQ Newsletter About
Weather : Europe Africa North America South America Asia Australia-Oceania Others
Languages Contact

Budapest, Hungary

Budapest Ferenc Liszt International Airport

latitude: 47-26N, longitude: 019-16E, elevation: 151 m


METAR: LHBP 182300Z 33008KT CAVOK 03/M04 Q1021 NOSIG
TAF: LHBP 182300Z 1900/1924 32005KT CAVOK BECMG 1907/1910 31010KT BECMG 1916/1919 31005KT

Time: 01:31 (23:31 UTC)

Current weather observation

The report was made 31 minutes ago, at 23:00 UTC
Wind 8 kt from the North/Northwest
Temperature 3°C
Humidity 60%
Pressure 1021 hPa
Visibility 10 km or more
no clouds below 1500 m and no cumulonimbus

Change units

Forecast

The report was made 31 minutes ago, at 23:00 UTC
Forecast valid from 19 at 00 UTC to 19 at 24 UTC
Wind 5 kt from the Northwest
Visibility 10 km or more
no clouds below 1500 m and no cumulonimbus
Becoming
from 19 at 07 UTC to 19 at 10 UTC
Wind 10 kt from the Northwest
Becoming
from 19 at 16 UTC to 19 at 19 UTC
Wind 5 kt from the Northwest
The information on this site is subject to a disclaimer
Weather : Europe Africa North America South America Asia Australia-Oceania Others
Satellite images 10-day forecastsClimateMarine weather Cyclones Lightning AirportsFAQ Languages Contact Newsletter About